Time;durP1;ratioP1;P1;durP2;ratioP2;P2;SDS_P1;SDS_P2;PMS_P1;PMS_P2;Temp;Humidity;BMP_temperature;BMP_pressure;BME280_temperature;BME280_humidity;BME280_pressure;Samples;Min_cycle;Max_cycle;Signal;HPM_P1;HPM_P2
2023/11/24 08:23:15;;;;;;;5.80;3.00;;;19.10;68.50;;;20.58;50.59;94734.16;5096221;27;20380;-64
2023/11/24 08:25:42;;;;;;;6.00;3.35;;;20.00;66.40;;;21.22;50.52;94714.41;5087795;28;20036;-64
2023/11/24 08:28:11;;;;;;;6.22;3.00;;;20.40;65.80;;;21.70;47.99;94686.75;5089463;28;20114;-70
2023/11/24 08:30:38;;;;;;;4.63;3.00;;;20.80;65.00;;;22.05;46.99;94683.22;5084870;28;20565;-61
2023/11/24 08:33:05;;;;;;;3.47;2.75;;;21.10;64.30;;;22.27;46.06;94698.16;5072856;28;20059;-64
2023/11/24 08:35:32;;;;;;;4.75;2.80;;;21.40;63.60;;;22.42;45.38;94693.88;5069394;28;20111;-64
2023/11/24 08:37:59;;;;;;;3.88;2.80;;;21.70;62.90;;;22.54;44.71;94697.84;5079506;28;20048;-62
2023/11/24 08:40:26;;;;;;;4.72;2.70;;;21.90;62.30;;;22.63;44.39;94700.75;5074374;28;20076;-63
2023/11/24 08:42:54;;;;;;;4.07;2.80;;;22.10;61.90;;;22.74;44.17;94709.53;5060316;28;20047;-64
2023/11/24 08:45:22;;;;;;;3.83;2.60;;;22.20;61.50;;;22.82;44.10;94708.94;5071181;28;20040;-62
2023/11/24 08:47:49;;;;;;;4.45;2.70;;;22.30;61.30;;;22.88;43.46;94692.91;5087903;28;20037;-65
2023/11/24 08:50:18;;;;;;;3.58;2.63;;;22.40;61.00;;;22.90;43.53;94682.72;5087696;28;20044;-71
2023/11/24 08:52:47;;;;;;;4.63;3.00;;;22.60;61.10;;;23.03;43.43;94688.28;5085772;28;20045;-69
2023/11/24 08:55:16;;;;;;;2.88;2.50;;;22.60;61.00;;;23.12;43.04;94693.84;5089293;28;20040;-69
2023/11/24 08:57:44;;;;;;;3.40;2.55;;;22.70;60.70;;;23.17;42.98;94687.69;5079306;28;20083;-69
2023/11/24 09:00:14;;;;;;;3.42;2.42;;;22.80;60.50;;;23.20;42.92;94689.78;5069060;28;20414;-69
2023/11/24 09:02:41;;;;;;;3.60;2.30;;;22.80;60.40;;;23.23;42.82;94705.31;5070598;28;20219;-69
2023/11/24 09:05:09;;;;;;;3.00;2.47;;;22.90;60.30;;;23.26;42.90;94683.34;5068560;28;20083;-68
2023/11/24 09:07:36;;;;;;;3.53;2.35;;;22.90;60.10;;;23.30;42.63;94688.94;5050945;28;20037;-69
2023/11/24 09:10:04;;;;;;;4.28;2.20;;;23.00;60.10;;;23.33;42.81;94680.38;5076911;28;20086;-61
2023/11/24 09:12:31;;;;;;;3.65;2.13;;;23.10;60.10;;;23.34;43.34;94677.41;5072222;28;20048;-64
2023/11/24 09:14:58;;;;;;;3.58;2.38;;;23.10;60.20;;;23.46;43.20;94689.63;5068915;28;20037;-64
2023/11/24 09:17:25;;;;;;;2.33;2.00;;;23.20;60.40;;;23.54;42.87;94685.56;5082344;28;20044;-64
2023/11/24 09:19:52;;;;;;;3.42;2.08;;;23.20;60.10;;;23.54;42.35;94678.31;5082608;28;20033;-65
2023/11/24 09:22:19;;;;;;;3.53;2.22;;;23.20;59.90;;;23.65;42.94;94677.16;5054806;28;141791;-65
2023/11/24 09:24:47;;;;;;;3.63;2.10;;;23.20;60.10;;;23.76;42.95;94659.13;5046732;28;20068;-64
2023/11/24 09:27:16;;;;;;;3.05;1.98;;;23.30;60.20;;;23.85;42.57;94662.00;5048619;28;20045;-64
2023/11/24 09:29:43;;;;;;;2.95;1.70;;;23.30;60.10;;;23.85;40.37;94658.53;5048131;28;20100;-73
2023/11/24 09:32:11;;;;;;;2.30;1.60;;;23.40;58.40;;;23.87;41.87;94654.47;5047761;28;20045;-68
2023/11/24 09:37:48;;;;;;;4.72;2.00;;;23.40;59.30;;;23.96;41.58;94634.06;4986918;27;20410;-72
2023/11/24 09:40:19;;;;;;;2.92;2.10;;;23.50;59.00;;;24.11;41.36;94617.03;4987101;28;60356;-71
2023/11/24 09:42:47;;;;;;;3.85;1.88;;;23.50;58.40;;;24.18;40.95;94610.53;5008067;28;20089;-72
2023/11/24 09:45:19;;;;;;;2.30;1.50;;;23.50;58.50;;;24.22;40.99;94600.84;5008588;28;20129;-72
2023/11/24 09:47:51;;;;;;;3.55;1.80;;;23.50;58.70;;;24.25;40.36;94592.22;5006433;28;20042;-64
2023/11/24 09:50:24;;;;;;;5.28;2.25;;;23.60;58.10;;;24.24;40.28;94606.72;5006618;28;20056;-65
2023/11/24 09:52:55;;;;;;;7.95;2.95;;;23.60;58.10;;;24.20;40.00;94587.72;5001912;28;20042;-64
2023/11/24 09:55:28;;;;;;;6.55;2.85;;;23.60;57.50;;;24.15;40.20;94590.47;4991258;28;20090;-65
2023/11/24 09:57:56;;;;;;;6.45;2.90;;;23.60;57.80;;;24.17;40.57;94574.09;4995223;28;20101;-63
2023/11/24 10:00:25;;;;;;;6.30;2.65;;;23.70;57.70;;;24.16;40.22;94573.31;5009142;28;20042;-63
2023/11/24 10:02:59;;;;;;;5.03;2.42;;;23.70;57.50;;;24.14;40.25;94562.06;5006331;28;20045;-64
2023/11/24 10:05:26;;;;;;;5.15;2.22;;;23.70;57.50;;;24.13;40.81;94557.78;5017233;28;20120;-65
2023/11/24 10:07:54;;;;;;;5.15;2.08;;;23.80;57.60;;;24.22;41.04;94568.69;5008670;28;20065;-68
2023/11/24 10:10:25;;;;;;;5.88;2.55;;;23.80;58.00;;;24.29;41.33;94563.75;5006933;28;20045;-63
2023/11/24 10:12:59;;;;;;;7.18;2.42;;;23.80;58.30;;;24.36;41.46;94533.94;5008150;28;20439;-63
2023/11/24 10:15:27;;;;;;;4.18;2.33;;;23.80;58.40;;;24.46;41.42;94523.88;4988827;28;20041;-64
2023/11/24 10:17:54;;;;;;;5.00;2.33;;;23.80;58.80;;;24.55;41.59;94525.91;5004125;28;20576;-65
2023/11/24 10:20:22;;;;;;;5.28;2.20;;;23.80;58.80;;;24.66;41.57;94529.25;4994759;28;20138;-65
2023/11/24 10:22:50;;;;;;;3.83;1.85;;;23.80;59.00;;;24.67;41.43;94522.81;5007612;28;20042;-66
2023/11/24 10:25:23;;;;;;;4.15;2.15;;;23.80;59.10;;;24.72;41.73;94522.75;5007743;28;20072;-67
2023/11/24 10:28:07;;;;;;;4.15;1.85;;;23.90;59.50;;;24.77;41.42;94518.09;5001582;28;20436;-67
2023/11/24 10:30:36;;;;;;;5.50;2.55;;;23.90;59.40;;;24.81;41.69;94498.75;5007574;28;20069;-67
2023/11/24 10:33:04;;;;;;;4.63;3.05;;;23.90;59.20;;;24.87;41.32;94487.63;4975138;28;20054;-65
2023/11/24 10:35:32;;;;;;;10.80;4.07;;;24.00;59.40;;;24.93;41.31;94481.09;4990483;28;20133;-65
2023/11/24 10:38:01;;;;;;;12.38;4.97;;;24.00;59.30;;;24.94;41.49;94479.22;4996919;28;20047;-69
2023/11/24 10:40:29;;;;;;;12.30;5.45;;;24.00;59.20;;;25.00;41.74;94471.88;4987871;28;20042;-68
2023/11/24 10:42:56;;;;;;;10.30;4.80;;;24.10;59.20;;;25.02;41.88;94462.44;5006427;28;20049;-65
2023/11/24 10:45:24;;;;;;;10.38;4.93;;;24.10;59.40;;;25.05;41.31;94461.84;5006039;28;20050;-66
2023/11/24 10:48:14;;;;;;;10.43;5.00;;;24.20;59.20;;;25.10;41.60;94464.44;5000467;28;20046;-64
2023/11/24 10:50:49;;;;;;;10.40;4.32;;;24.20;59.30;;;25.12;41.07;94466.84;4992560;28;20100;-64
2023/11/24 10:53:36;;;;;;;16.98;4.68;;;24.20;59.10;;;25.17;41.42;94466.75;4993257;28;20040;-65
2023/11/24 10:56:08;;;;;;;9.32;3.78;;;24.30;59.50;;;25.12;41.58;94474.09;4991235;28;20499;-64
2023/11/24 10:58:36;;;;;;;8.48;4.65;;;24.30;59.10;;;25.13;41.93;94467.63;4974477;28;20047;-63
2023/11/24 11:01:03;;;;;;;10.82;4.70;;;24.30;59.10;;;25.18;41.87;94456.81;4990717;28;20038;-66
2023/11/24 11:03:33;;;;;;;12.05;5.38;;;24.40;59.40;;;25.13;41.82;94452.31;4976725;28;20046;-67
2023/11/24 11:06:12;;;;;;;14.25;5.70;;;24.40;59.50;;;25.05;41.99;94437.69;4974743;28;20437;-78
2023/11/24 11:08:52;;;;;;;12.65;5.35;;;24.40;59.30;;;25.01;42.25;94443.94;4974508;28;20556;-72
2023/11/24 11:11:39;;;;;;;11.88;5.47;;;24.50;59.30;;;25.08;42.74;94457.78;4974446;28;20043;-71
2023/11/24 11:14:08;;;;;;;11.63;4.88;;;24.50;59.70;;;25.03;42.45;94455.97;4975528;28;20098;-68
2023/11/24 11:16:37;;;;;;;11.90;4.53;;;24.50;59.30;;;24.93;42.19;94437.38;4979871;28;20084;-74
2023/11/24 11:19:30;;;;;;;10.55;4.40;;;24.50;59.30;;;24.98;42.84;94431.13;4995775;28;20046;-73
2023/11/24 11:22:00;;;;;;;12.30;4.60;;;24.50;59.60;;;24.91;43.21;94418.91;4998420;28;20045;-78
2023/11/24 11:24:28;;;;;;;9.93;6.07;;;24.60;59.60;;;24.93;43.11;94416.72;4982066;28;20043;-72
2023/11/24 11:26:57;;;;;;;10.38;6.07;;;24.60;59.70;;;24.92;43.06;94414.31;4984284;28;20425;-70
2023/11/24 11:29:28;;;;;;;10.50;5.25;;;24.60;59.60;;;24.89;43.36;94404.97;4993321;28;20043;-69
2023/11/24 11:31:55;;;;;;;11.77;4.47;;;24.70;59.50;;;24.85;42.93;94406.69;4988969;28;20042;-70
2023/11/24 11:34:29;;;;;;;25.55;4.53;;;24.70;59.20;;;24.80;43.12;94396.00;5006216;28;20085;-71
2023/11/24 11:37:06;;;;;;;8.82;3.90;;;24.70;59.20;;;24.75;43.11;94378.13;4989939;28;20051;-70
2023/11/24 11:39:37;;;;;;;10.30;4.60;;;24.70;59.10;;;24.72;42.67;94368.00;4981861;28;20468;-70
2023/11/24 11:42:09;;;;;;;7.18;3.60;;;24.70;59.00;;;24.69;43.00;94367.78;4984874;28;20043;-70
2023/11/24 11:44:48;;;;;;;6.90;3.20;;;24.70;58.90;;;24.69;42.99;94354.38;4973773;28;20489;-70
2023/11/24 11:47:20;;;;;;;8.30;3.00;;;24.70;58.80;;;24.66;43.05;94346.91;4988734;28;20046;-70
2023/11/24 11:49:54;;;;;;;;;;;24.70;58.70;;;24.67;42.52;94352.00;4993247;28;20485;-69
2023/11/24 11:52:25;;;;;;;8.38;2.75;;;24.70;59.30;;;24.64;42.27;94347.19;4986727;28;20291;-70
2023/11/24 11:54:55;;;;;;;6.93;2.55;;;24.60;58.30;;;24.61;42.58;94348.56;4994063;28;20050;-70
2023/11/24 11:57:23;;;;;;;6.93;2.97;;;24.70;58.30;;;24.62;42.31;94342.13;4975101;28;20062;-70
2023/11/24 11:59:51;;;;;;;7.22;2.92;;;24.70;58.30;;;24.62;42.38;94342.13;4973563;28;20175;-70
2023/11/24 12:02:22;;;;;;;6.72;2.78;;;24.60;58.20;;;24.61;42.51;94323.66;5006551;28;20132;-70
2023/11/24 12:04:50;;;;;;;6.00;2.30;;;24.60;58.20;;;24.61;42.29;94329.00;4992732;28;20440;-72
2023/11/24 12:07:20;;;;;;;7.03;2.33;;;24.50;58.20;;;24.60;42.73;94327.41;4994356;28;20093;-73
2023/11/24 12:09:47;;;;;;;7.25;2.10;;;24.60;58.30;;;24.60;42.68;94322.84;4986863;28;20053;-70
2023/11/24 12:12:15;;;;;;;5.15;2.15;;;24.50;58.30;;;24.59;42.64;94326.59;4986251;28;20052;-70
2023/11/24 12:14:43;;;;;;;6.30;2.40;;;24.50;58.30;;;24.60;42.63;94322.84;4992796;28;20389;-70
2023/11/24 12:17:11;;;;;;;4.97;2.05;;;24.50;58.40;;;24.59;42.61;94328.50;4991818;28;20042;-70
2023/11/24 12:19:39;;;;;;;4.38;1.90;;;24.50;58.50;;;24.58;42.47;94327.72;5010334;28;20588;-70
2023/11/24 12:22:10;;;;;;;6.20;2.30;;;24.50;58.40;;;24.56;42.46;94329.91;4963709;28;20055;-70
2023/11/24 12:24:39;;;;;;;5.18;1.95;;;24.50;58.30;;;24.53;42.35;94322.44;4989065;28;20051;-70
2023/11/24 12:27:08;;;;;;;4.75;2.13;;;24.40;58.20;;;24.52;42.36;94314.69;4984177;28;20066;-70
2023/11/24 12:29:41;;;;;;;4.00;1.92;;;24.40;58.20;;;24.52;42.48;94314.69;4979050;28;20042;-70
2023/11/24 12:32:09;;;;;;;5.28;1.80;;;24.40;58.30;;;24.51;42.49;94310.41;4983687;28;20046;-70
2023/11/24 12:34:42;;;;;;;4.50;1.80;;;24.40;58.20;;;24.48;42.70;94305.66;4990654;28;20049;-70
2023/11/24 12:37:10;;;;;;;6.90;2.00;;;24.40;58.30;;;24.50;42.61;94296.22;4992069;28;20660;-70
2023/11/24 12:39:40;;;;;;;5.43;2.22;;;24.40;58.30;;;24.45;42.48;94299.78;4992347;28;20039;-72
2023/11/24 12:42:07;;;;;;;4.22;1.85;;;24.40;58.50;;;24.43;42.87;94304.63;4993746;28;20045;-71
2023/11/24 12:44:36;;;;;;;4.90;2.00;;;24.40;58.60;;;24.41;42.93;94293.44;4991604;28;20042;-72
2023/11/24 12:47:12;;;;;;;3.75;1.50;;;24.30;58.60;;;24.41;42.80;94300.66;4976296;28;20054;-72
2023/11/24 12:50:09;;;;;;;4.88;1.40;;;24.30;58.40;;;24.40;42.55;94293.69;4992018;28;20120;-71
2023/11/24 12:52:41;;;;;;;3.45;1.10;;;24.30;58.40;;;24.38;42.74;94290.53;4968670;28;20566;-71
2023/11/24 12:55:10;;;;;;;3.05;1.25;;;24.30;58.20;;;24.36;42.50;94290.03;4980352;28;20046;-76
2023/11/24 12:57:38;;;;;;;4.82;1.67;;;24.30;58.20;;;24.36;43.30;94279.31;4991918;28;20046;-73
2023/11/24 13:00:13;;;;;;;3.95;1.63;;;24.30;58.70;;;24.39;42.35;94268.81;4991336;28;20057;-76
2023/11/24 13:02:41;;;;;;;4.95;1.30;;;24.30;58.20;;;24.36;42.85;94268.59;4993472;28;20093;-70
2023/11/24 13:05:12;;;;;;;3.53;1.25;;;24.30;58.40;;;24.35;42.30;94261.63;4991667;28;20046;-73
2023/11/24 13:07:42;;;;;;;;;;;24.30;58.20;;;24.42;42.47;94267.41;4993819;28;20485;-76
2023/11/24 13:10:10;;;;;;;4.60;1.50;;;24.30;58.70;;;24.43;41.96;94260.97;4991544;28;19922;-76
2023/11/24 13:12:39;;;;;;;2.80;1.35;;;24.30;58.00;;;24.42;41.96;94265.50;4993213;28;20420;-77
2023/11/24 13:15:07;;;;;;;4.32;1.50;;;24.30;57.60;;;24.41;41.82;94269.31;4975629;28;20046;-76
2023/11/24 13:17:35;;;;;;;3.83;1.42;;;24.30;57.50;;;24.38;41.73;94272.56;4994152;28;20046;-65
2023/11/24 13:20:10;;;;;;;3.65;1.30;;;24.30;57.40;;;24.41;42.13;94279.22;4994813;28;20156;-65
2023/11/24 13:22:42;;;;;;;3.75;1.63;;;24.30;57.50;;;24.40;42.57;94264.22;5011345;28;20034;-68
2023/11/24 13:25:09;;;;;;;;;;;24.30;59.40;;;24.55;42.59;94261.28;5013015;28;20042;-69
2023/11/24 13:27:38;;;;;;;3.63;1.30;;;24.30;58.60;;;24.61;42.93;94278.06;5008612;28;19927;-62
2023/11/24 13:30:09;;;;;;;3.10;1.20;;;24.30;58.40;;;24.67;42.37;94278.78;5012116;28;20392;-68
2023/11/24 13:32:43;;;;;;;3.25;1.25;;;24.30;58.50;;;24.74;42.24;94285.38;4996497;28;20055;-65
2023/11/24 13:35:11;;;;;;;2.70;1.30;;;24.20;58.40;;;24.71;42.12;94285.94;4975315;28;20460;-67
2023/11/24 13:37:38;;;;;;;3.00;1.60;;;24.30;58.10;;;24.63;42.16;94281.22;4992784;28;20057;-64
2023/11/24 13:40:09;;;;;;;2.85;1.08;;;24.30;58.10;;;24.74;41.91;94280.00;4991485;28;20046;-64
